Time;durP1;ratioP1;P1;durP2;ratioP2;P2;SDS_P1;SDS_P2;PMS_P1;PMS_P2;Temp;Humidity;BMP_temperature;BMP_pressure;BME280_temperature;BME280_humidity;BME280_pressure;Samples;Min_cycle;Max_cycle;Signal;HPM_P1;HPM_P2
2021/12/04 00:01:16;;;;;;;2.95;2.30;;;5.10;95.10;;;;;;6254261;23;20155;-55
2021/12/04 00:03:42;;;;;;;3.40;2.63;;;5.40;95.50;;;;;;6253709;22;20669;-55
2021/12/04 00:06:15;;;;;;;3.60;3.30;;;5.40;95.40;;;;;;6253407;23;20161;-55
2021/12/04 00:08:44;;;;;;;4.95;2.55;;;5.00;95.30;;;;;;6253540;23;20649;-54
2021/12/04 00:11:10;;;;;;;2.95;2.20;;;5.70;95.70;;;;;;6253909;23;20155;-56
2021/12/04 00:13:36;;;;;;;2.60;2.40;;;5.50;95.00;;;;;;6254148;22;20171;-54
2021/12/04 00:16:01;;;;;;;2.80;2.33;;;5.60;95.70;;;;;;6254051;23;20141;-55
2021/12/04 00:18:27;;;;;;;2.70;2.50;;;5.50;95.70;;;;;;6253309;23;20525;-55
2021/12/04 00:20:53;;;;;;;3.63;2.43;;;5.30;95.60;;;;;;6253771;23;20157;-55
2021/12/04 00:23:18;;;;;;;3.27;2.47;;;5.40;95.50;;;;;;6254873;22;20177;-55
2021/12/04 00:25:44;;;;;;;4.50;2.87;;;5.30;96.00;;;;;;6252988;23;20532;-54
2021/12/04 00:28:10;;;;;;;2.60;2.40;;;5.10;95.90;;;;;;6253585;23;20162;-55
2021/12/04 00:30:36;;;;;;;2.40;2.20;;;5.50;96.10;;;;;;6253447;23;20158;-54
2021/12/04 00:33:11;;;;;;;4.18;2.75;;;5.20;96.20;;;;;;6253424;22;20170;-55
2021/12/04 00:35:44;;;;;;;3.17;2.13;;;5.30;97.20;;;;;;6253628;23;20468;-54
2021/12/04 00:51:32;;;;;;;2.40;2.20;;;5.70;96.10;;;;;;6253776;23;20144;-55
2021/12/04 00:53:58;;;;;;;4.70;2.50;;;5.70;96.30;;;;;;6252898;22;20179;-54
2021/12/04 00:56:24;;;;;;;3.00;2.40;;;5.50;96.10;;;;;;6253243;23;20752;-53
2021/12/04 00:58:49;;;;;;;2.42;2.00;;;5.80;96.30;;;;;;6252956;23;20550;-55
2021/12/04 01:01:16;;;;;;;3.20;2.33;;;5.50;96.20;;;;;;6253009;23;20186;-54
2021/12/04 01:03:42;;;;;;;3.47;2.55;;;5.70;96.30;;;;;;6252536;22;20175;-55
2021/12/04 01:06:08;;;;;;;2.60;2.20;;;5.60;95.80;;;;;;6253094;23;20165;-54
2021/12/04 01:08:34;;;;;;;2.70;2.50;;;5.70;96.20;;;;;;6252664;23;20178;-54
2021/12/04 01:11:02;;;;;;;3.25;2.60;;;5.80;96.30;;;;;;6252719;23;20694;-55
2021/12/04 01:13:28;;;;;;;3.08;2.35;;;5.60;96.40;;;;;;6253685;22;20171;-55
2021/12/04 01:15:54;;;;;;;3.90;2.55;;;5.50;96.50;;;;;;6242563;23;20162;-54
2021/12/04 01:18:20;;;;;;;4.63;2.10;;;5.60;96.90;;;;;;6252537;23;20151;-55
2021/12/04 01:20:46;;;;;;;3.22;2.45;;;5.80;97.00;;;;;;6253091;23;20426;-53
2021/12/04 01:23:12;;;;;;;2.30;2.10;;;5.60;97.40;;;;;;6253403;22;20176;-55
2021/12/04 01:25:39;;;;;;;4.18;2.40;;;5.60;97.90;;;;;;6252311;23;20933;-55
2021/12/04 01:28:05;;;;;;;2.50;2.30;;;5.70;98.20;;;;;;6253003;23;20523;-54
2021/12/04 01:30:31;;;;;;;3.40;2.80;;;5.70;98.90;;;;;;6252775;23;20185;-55
2021/12/04 01:32:57;;;;;;;2.55;2.35;;;5.50;99.40;;;;;;6253148;22;20634;-55
2021/12/04 01:35:23;;;;;;;2.57;2.20;;;5.70;99.90;;;;;;6252821;23;20229;-56
2021/12/04 01:37:48;;;;;;;2.87;2.60;;;5.70;99.90;;;;;;6253361;23;20151;-57
2021/12/04 01:40:14;;;;;;;3.60;2.40;;;5.70;99.90;;;;;;6252991;23;20154;-54
2021/12/04 01:42:40;;;;;;;2.83;2.63;;;5.70;99.90;;;;;;6252513;22;20212;-54
2021/12/04 01:45:07;;;;;;;3.77;2.50;;;5.60;99.90;;;;;;6251778;23;20389;-57
2021/12/04 01:47:33;;;;;;;2.90;2.70;;;5.40;99.90;;;;;;6241623;23;20524;-55
2021/12/04 01:50:01;;;;;;;3.00;2.80;;;5.20;99.90;;;;;;6252438;23;20183;-55
2021/12/04 01:52:28;;;;;;;2.28;2.08;;;4.50;99.90;;;;;;6253293;22;20407;-55
2021/12/04 01:54:54;;;;;;;3.20;2.40;;;5.20;99.90;;;;;;6252718;23;20153;-55
2021/12/04 01:57:21;;;;;;;2.42;2.22;;;5.20;99.90;;;;;;6252732;23;20184;-55
2021/12/04 01:59:48;;;;;;;2.45;2.25;;;5.00;99.90;;;;;;6252322;23;20156;-53
2021/12/04 02:02:14;;;;;;;3.13;2.13;;;4.80;99.90;;;;;;6252624;22;20149;-54
2021/12/04 02:04:39;;;;;;;3.17;2.80;;;5.00;99.90;;;;;;6242490;23;20238;-55
2021/12/04 02:07:05;;;;;;;4.17;2.70;;;4.80;99.90;;;;;;6252579;23;20392;-55
2021/12/04 02:09:32;;;;;;;2.42;2.22;;;4.90;99.90;;;;;;6252163;23;20420;-54
2021/12/04 02:11:58;;;;;;;2.85;2.47;;;4.90;99.90;;;;;;6253293;23;20213;-55
2021/12/04 02:14:24;;;;;;;3.03;2.72;;;5.00;99.90;;;;;;6252461;22;20178;-54
2021/12/04 02:16:51;;;;;;;4.63;2.30;;;4.70;99.90;;;;;;6252775;23;20939;-54
2021/12/04 02:19:18;;;;;;;4.22;2.75;;;4.90;99.90;;;;;;6242151;23;20447;-54
2021/12/04 02:21:43;;;;;;;2.90;2.70;;;4.80;99.90;;;;;;6252765;23;20597;-55
2021/12/04 02:24:10;;;;;;;2.80;2.57;;;4.60;99.90;;;;;;6242611;22;20185;-52
2021/12/04 02:26:36;;;;;;;3.03;2.67;;;4.60;99.90;;;;;;6251683;23;20414;-53
2021/12/04 02:29:01;;;;;;;3.50;2.60;;;4.80;99.90;;;;;;6251991;23;20175;-53
2021/12/04 02:31:27;;;;;;;3.17;2.87;;;4.80;99.90;;;;;;6252978;23;20142;-53
2021/12/04 02:33:54;;;;;;;3.45;2.88;;;4.80;99.90;;;;;;6254312;22;20169;-53
2021/12/04 02:36:20;;;;;;;2.97;2.67;;;4.80;99.90;;;;;;6244489;23;20149;-54
2021/12/04 02:38:51;;;;;;;3.63;2.97;;;4.70;99.90;;;;;;6254254;23;20231;-53
2021/12/04 02:41:19;;;;;;;3.05;2.60;;;4.80;99.90;;;;;;6254394;23;20157;-54
2021/12/04 02:43:45;;;;;;;3.97;2.90;;;4.70;99.90;;;;;;6244066;22;20234;-55
2021/12/04 02:46:12;;;;;;;4.32;3.15;;;4.90;99.90;;;;;;6254903;23;20165;-54
2021/12/04 02:48:38;;;;;;;3.45;3.15;;;4.70;99.90;;;;;;6253836;23;20178;-54
2021/12/04 02:51:04;;;;;;;4.40;4.00;;;4.60;99.90;;;;;;6244340;23;20547;-54
2021/12/04 02:53:29;;;;;;;5.53;3.40;;;4.00;99.90;;;;;;6244496;22;20746;-54
2021/12/04 02:55:55;;;;;;;4.17;3.77;;;4.60;99.90;;;;;;6254165;23;20150;-54
2021/12/04 02:58:21;;;;;;;4.07;3.67;;;4.60;99.90;;;;;;6254049;23;20168;-53
2021/12/04 03:00:48;;;;;;;4.45;3.78;;;4.60;99.90;;;;;;6254389;23;20467;-54
2021/12/04 03:03:17;;;;;;;4.75;3.83;;;4.50;99.90;;;;;;6254760;22;20216;-54
2021/12/04 03:05:46;;;;;;;4.53;3.42;;;4.40;99.90;;;;;;6254432;23;20142;-54
2021/12/04 03:08:11;;;;;;;6.05;4.47;;;4.40;99.90;;;;;;6253952;23;20154;-54
2021/12/04 03:10:37;;;;;;;4.60;4.20;;;3.70;99.90;;;;;;6243668;23;20497;-54
2021/12/04 03:13:07;;;;;;;4.57;3.90;;;4.20;99.90;;;;;;6254152;22;20620;-54
2021/12/04 03:15:33;;;;;;;4.90;4.38;;;4.70;99.90;;;;;;6254360;23;20494;-54
2021/12/04 03:17:58;;;;;;;4.03;3.20;;;4.40;99.90;;;;;;6254035;23;20601;-54
2021/12/04 03:20:24;;;;;;;3.93;3.50;;;4.60;99.90;;;;;;6254061;23;20188;-54
2021/12/04 03:22:55;;;;;;;3.50;3.20;;;4.40;99.90;;;;;;6254149;22;20188;-54
2021/12/04 03:25:21;;;;;;;3.97;3.40;;;4.60;99.90;;;;;;6243206;23;20983;-54
2021/12/04 03:27:49;;;;;;;4.77;3.60;;;4.70;99.90;;;;;;6253992;23;20182;-54
2021/12/04 03:30:29;;;;;;;6.18;3.90;;;4.60;99.90;;;;;;6254285;23;20450;-54
2021/12/04 03:41:05;;;;;;;6.68;4.05;;;4.70;99.90;;;;;;6254134;23;20204;-55
2021/12/04 03:43:32;;;;;;;3.67;3.30;;;4.60;99.90;;;;;;6254193;22;20169;-55
2021/12/04 03:46:01;;;;;;;4.15;3.75;;;4.60;99.90;;;;;;6253898;23;20224;-54
2021/12/04 03:51:01;;;;;;;4.28;3.88;;;5.00;99.90;;;;;;6253762;23;20443;-54
2021/12/04 03:53:27;;;;;;;4.00;3.60;;;4.40;99.90;;;;;;6216917;23;20649;-54
2021/12/04 03:55:53;;;;;;;4.23;3.47;;;4.80;99.90;;;;;;6253792;23;20149;-55
2021/12/04 03:58:20;;;;;;;3.60;3.23;;;4.80;99.90;;;;;;6252499;23;20852;-55
2021/12/04 04:00:46;;;;;;;4.00;3.45;;;5.00;99.90;;;;;;6253764;23;20145;-55
2021/12/04 04:03:12;;;;;;;5.70;4.07;;;5.00;99.90;;;;;;6253422;22;20170;-55
2021/12/04 04:05:38;;;;;;;5.17;3.80;;;5.10;99.90;;;;;;6243818;23;20196;-54
2021/12/04 04:08:04;;;;;;;3.88;3.50;;;4.40;99.90;;;;;;6253639;23;20191;-54
2021/12/04 04:10:30;;;;;;;6.35;4.60;;;5.00;99.90;;;;;;6253400;23;20173;-54
2021/12/04 04:12:55;;;;;;;4.40;4.00;;;5.00;99.90;;;;;;6253447;22;20175;-55
2021/12/04 04:15:22;;;;;;;3.80;3.40;;;4.80;99.90;;;;;;6253977;23;20282;-54
2021/12/04 04:17:49;;;;;;;3.85;3.50;;;4.90;99.90;;;;;;6243166;23;20154;-55
2021/12/04 04:20:17;;;;;;;4.85;4.05;;;4.90;99.90;;;;;;6243202;23;20511;-55
2021/12/04 04:22:44;;;;;;;4.80;4.40;;;4.50;99.90;;;;;;6252343;22;20174;-55
2021/12/04 04:25:11;;;;;;;4.95;3.50;;;4.90;99.90;;;;;;6222521;23;20176;-55
2021/12/04 04:27:37;;;;;;;5.30;4.28;;;5.00;99.90;;;;;;6254527;23;20153;-54
2021/12/04 04:30:13;;;;;;;4.00;3.60;;;5.10;99.90;;;;;;6253951;23;20546;-54
2021/12/04 04:32:40;;;;;;;4.00;3.53;;;4.90;99.90;;;;;;6253313;22;20165;-55
2021/12/04 04:35:13;;;;;;;5.60;3.92;;;5.10;99.90;;;;;;6253804;23;20175;-55
2021/12/04 05:15:32;;;;;;;8.80;5.75;;;5.00;99.90;;;;;;6253580;23;20196;-55
2021/12/04 05:18:09;;;;;;;6.85;5.60;;;5.10;99.90;;;;;;6215458;23;20231;-55
2021/12/04 05:20:37;;;;;;;5.32;4.50;;;5.20;99.90;;;;;;6243610;23;20177;-56
2021/12/04 05:23:03;;;;;;;4.82;3.95;;;5.20;99.90;;;;;;6252317;22;20194;-56
2021/12/04 05:25:31;;;;;;;6.43;4.05;;;5.10;99.90;;;;;;6252354;23;20175;-55
2021/12/04 05:27:57;;;;;;;5.18;3.75;;;5.30;99.90;;;;;;6241891;23;20620;-56
2021/12/04 05:30:22;;;;;;;4.55;3.78;;;5.50;99.90;;;;;;6251851;23;20293;-56
2021/12/04 05:32:48;;;;;;;3.93;3.53;;;4.60;99.90;;;;;;6251997;22;20198;-56
2021/12/04 05:35:14;;;;;;;3.40;3.10;;;5.60;99.90;;;;;;6253139;23;20143;-57
2021/12/04 05:37:39;;;;;;;3.73;2.90;;;5.00;99.90;;;;;;6252382;23;20556;-56
2021/12/04 05:40:10;;;;;;;5.03;3.17;;;4.90;99.90;;;;;;6252643;23;20606;-57
2021/12/04 05:42:36;;;;;;;2.53;2.33;;;5.60;99.90;;;;;;6252525;22;20172;-56
2021/12/04 05:45:02;;;;;;;2.40;2.20;;;5.80;99.90;;;;;;6252731;23;20190;-57
2021/12/04 05:47:44;;;;;;;3.03;2.40;;;5.80;99.90;;;;;;6253173;23;20395;-55
2021/12/04 05:50:33;;;;;;;3.97;2.75;;;5.90;99.90;;;;;;6252105;23;20551;-55
2021/12/04 05:55:28;;;;;;;3.00;2.72;;;6.00;99.90;;;;;;6252792;23;20154;-57
2021/12/04 05:57:54;;;;;;;2.40;2.20;;;5.90;99.90;;;;;;6252822;23;20246;-56
2021/12/04 06:00:23;;;;;;;3.03;2.73;;;5.50;99.90;;;;;;6252504;23;20611;-56
2021/12/04 06:02:49;;;;;;;4.63;2.80;;;6.20;99.90;;;;;;6251930;22;20405;-57
2021/12/04 06:05:17;;;;;;;2.70;2.50;;;6.10;99.90;;;;;;6253350;23;20180;-57
2021/12/04 06:07:43;;;;;;;2.55;2.33;;;6.10;99.90;;;;;;6252803;23;20440;-56
2021/12/04 06:10:10;;;;;;;2.20;2.00;;;6.00;99.90;;;;;;6252254;23;20180;-56
2021/12/04 06:12:36;;;;;;;2.75;2.45;;;6.30;99.90;;;;;;6252582;22;20556;-56
2021/12/04 06:15:02;;;;;;;6.23;4.40;;;5.80;99.90;;;;;;6252748;23;20163;-56
2021/12/04 06:17:29;;;;;;;6.40;5.50;;;6.30;99.90;;;;;;6252172;23;20698;-56
2021/12/04 06:22:41;;;;;;;6.30;5.03;;;6.20;99.90;;;;;;6252424;22;20214;-57
2021/12/04 06:25:14;;;;;;;6.55;5.57;;;5.90;99.90;;;;;;6251847;23;20186;-56
2021/12/04 06:27:41;;;;;;;4.22;3.83;;;5.60;99.90;;;;;;6252331;23;20162;-54
2021/12/04 06:30:10;;;;;;;2.65;1.50;;;6.10;99.90;;;;;;6242500;23;20190;-54
2021/12/04 06:32:37;;;;;;;1.70;1.42;;;6.00;99.90;;;;;;6251777;22;20169;-54
2021/12/04 06:35:05;;;;;;;1.65;1.55;;;6.00;99.90;;;;;;6252150;23;20157;-55
2021/12/04 06:37:31;;;;;;;1.25;1.15;;;6.00;99.90;;;;;;6241569;23;20156;-54
2021/12/04 06:39:57;;;;;;;1.00;0.90;;;6.20;99.90;;;;;;6252249;23;20558;-55
2021/12/04 06:42:23;;;;;;;1.63;0.97;;;5.70;99.90;;;;;;6252411;22;20206;-59
2021/12/04 06:44:52;;;;;;;1.50;0.70;;;6.50;99.90;;;;;;6252406;23;20170;-57
2021/12/04 06:47:17;;;;;;;1.08;0.70;;;6.20;99.90;;;;;;6251850;23;20151;-56
2021/12/04 06:49:44;;;;;;;3.13;0.70;;;6.30;99.90;;;;;;6251998;23;20184;-56
2021/12/04 06:52:16;;;;;;;0.80;0.80;;;6.40;99.90;;;;;;6252053;22;20243;-56
2021/12/04 06:54:50;;;;;;;0.80;0.60;;;6.60;99.90;;;;;;6252610;23;20141;-56
2021/12/04 06:57:17;;;;;;;1.30;0.80;;;6.50;99.90;;;;;;6252544;23;20152;-57
2021/12/04 06:59:45;;;;;;;1.45;0.63;;;6.20;99.90;;;;;;6252467;23;20160;-56
2021/12/04 07:02:10;;;;;;;0.80;0.80;;;6.70;99.90;;;;;;6252029;22;20153;-57
2021/12/04 07:04:37;;;;;;;1.37;0.70;;;6.50;99.90;;;;;;6252634;23;20586;-55
2021/12/04 07:07:05;;;;;;;0.80;0.70;;;6.50;99.90;;;;;;6252458;23;20369;-57
2021/12/04 07:09:31;;;;;;;1.55;0.60;;;6.50;99.90;;;;;;6255381;23;20184;-54
2021/12/04 07:11:59;;;;;;;1.27;0.80;;;6.40;99.90;;;;;;6255601;23;20163;-55
2021/12/04 07:14:25;;;;;;;1.02;0.70;;;6.50;99.90;;;;;;6214809;23;20296;-54
2021/12/04 07:16:51;;;;;;;0.80;0.70;;;6.60;99.90;;;;;;6252098;23;20380;-57
2021/12/04 07:19:17;;;;;;;1.15;1.05;;;6.50;99.90;;;;;;6253738;23;20387;-55
2021/12/04 07:21:45;;;;;;;0.65;0.60;;;7.10;99.90;;;;;;6253046;23;20242;-53
2021/12/04 07:24:11;;;;;;;4.55;3.75;;;6.80;99.90;;;;;;6253694;22;20179;-55
2021/12/04 07:26:36;;;;;;;1.08;1.00;;;6.80;99.90;;;;;;6253367;23;20183;-54
2021/12/04 07:29:03;;;;;;;2.63;1.20;;;6.70;99.90;;;;;;6253354;23;20177;-55
2021/12/04 07:31:29;;;;;;;0.70;0.60;;;6.90;99.90;;;;;;6254105;23;20180;-55
2021/12/04 07:33:55;;;;;;;0.80;0.70;;;6.80;99.90;;;;;;6252529;22;20172;-57
2021/12/04 07:36:22;;;;;;;0.60;0.60;;;7.10;99.90;;;;;;6243456;23;20230;-55
2021/12/04 07:38:48;;;;;;;1.65;0.70;;;6.70;99.90;;;;;;6253941;23;20153;-54
2021/12/04 07:41:15;;;;;;;0.80;0.52;;;7.10;99.90;;;;;;6253693;23;20161;-57
2021/12/04 07:43:40;;;;;;;0.70;0.60;;;6.80;99.90;;;;;;6253273;22;20180;-56
2021/12/04 07:46:06;;;;;;;1.20;0.70;;;6.90;99.90;;;;;;6254326;23;20601;-55
2021/12/04 07:48:32;;;;;;;2.20;0.80;;;7.10;99.90;;;;;;6253622;23;20161;-55
2021/12/04 07:51:01;;;;;;;0.80;0.70;;;7.20;99.90;;;;;;6253183;23;20160;-55
2021/12/04 07:53:27;;;;;;;2.97;0.80;;;7.00;99.90;;;;;;6253753;22;20169;-55
2021/12/04 07:55:52;;;;;;;1.67;0.77;;;7.10;99.90;;;;;;6253491;23;20215;-56
2021/12/04 07:58:18;;;;;;;1.50;1.07;;;6.60;99.90;;;;;;6253251;23;20149;-55
2021/12/04 08:00:44;;;;;;;2.50;1.10;;;7.10;99.90;;;;;;6253607;23;20203;-56
2021/12/04 08:03:10;;;;;;;0.90;0.80;;;6.90;99.90;;;;;;6252655;22;20404;-56
2021/12/04 08:05:35;;;;;;;1.53;0.50;;;6.90;99.90;;;;;;6253616;23;20158;-57
2021/12/04 08:08:02;;;;;;;0.80;0.70;;;6.90;99.90;;;;;;6253416;23;20396;-54
2021/12/04 08:10:28;;;;;;;1.55;1.30;;;6.80;99.90;;;;;;6252867;23;20398;-54
2021/12/04 08:12:54;;;;;;;1.83;1.10;;;7.30;99.90;;;;;;6243362;22;20172;-54
2021/12/04 08:15:20;;;;;;;3.03;0.70;;;7.50;99.90;;;;;;6253429;23;20224;-54
2021/12/04 08:17:46;;;;;;;1.43;0.70;;;7.20;99.90;;;;;;6253762;23;20145;-53
2021/12/04 08:20:14;;;;;;;0.70;0.70;;;7.40;99.90;;;;;;6252955;23;20396;-54
2021/12/04 08:22:40;;;;;;;1.25;0.70;;;7.60;99.90;;;;;;6253212;22;20280;-53
2021/12/04 08:25:08;;;;;;;1.80;0.85;;;7.40;99.90;;;;;;6252799;23;20169;-54
2021/12/04 08:27:34;;;;;;;2.08;1.10;;;7.40;99.90;;;;;;6252656;23;20141;-54
2021/12/04 08:30:00;;;;;;;1.10;0.95;;;7.60;99.90;;;;;;6253150;23;20176;-55
2021/12/04 08:32:26;;;;;;;4.28;1.10;;;7.40;99.90;;;;;;6252831;22;20180;-54
2021/12/04 08:34:52;;;;;;;2.83;0.80;;;8.10;99.90;;;;;;6252909;23;20181;-54
2021/12/04 08:37:19;;;;;;;0.90;0.90;;;7.40;99.90;;;;;;6243297;23;20244;-54
2021/12/04 08:39:44;;;;;;;1.90;1.15;;;7.60;99.90;;;;;;6252701;23;20214;-54
2021/12/04 08:42:11;;;;;;;2.85;1.20;;;7.60;99.90;;;;;;6253319;22;20217;-53
2021/12/04 08:44:38;;;;;;;1.83;0.90;;;7.70;99.90;;;;;;6242628;23;20254;-54
2021/12/04 08:47:04;;;;;;;1.42;0.95;;;7.90;99.90;;;;;;6243203;23;20224;-54
2021/12/04 08:49:31;;;;;;;2.40;1.30;;;7.80;99.90;;;;;;6252654;23;20253;-54
2021/12/04 08:51:58;;;;;;;3.80;1.90;;;8.00;99.90;;;;;;6253193;23;20391;-54
2021/12/04 08:54:23;;;;;;;1.48;0.82;;;7.80;99.90;;;;;;6253028;22;20173;-53
2021/12/04 08:56:49;;;;;;;2.50;1.10;;;7.80;99.90;;;;;;6253285;23;20518;-54
2021/12/04 08:59:15;;;;;;;3.30;1.37;;;8.00;99.90;;;;;;6253632;23;20527;-54
2021/12/04 09:01:43;;;;;;;1.20;1.10;;;8.10;99.90;;;;;;6243180;23;20542;-54
2021/12/04 09:04:17;;;;;;;2.60;1.10;;;8.20;99.90;;;;;;6253078;22;20247;-53
2021/12/04 09:06:43;;;;;;;1.00;0.80;;;8.10;99.90;;;;;;6252759;23;20146;-53
2021/12/04 09:09:11;;;;;;;1.00;0.90;;;8.20;99.90;;;;;;6253191;23;20512;-54
2021/12/04 09:11:43;;;;;;;1.63;0.90;;;8.30;99.90;;;;;;6242606;23;20165;-54
2021/12/04 09:14:11;;;;;;;0.88;0.70;;;8.20;99.90;;;;;;6216249;23;20200;-54
2021/12/04 09:16:38;;;;;;;1.42;0.90;;;8.20;99.90;;;;;;6252806;23;20187;-54
2021/12/04 09:19:04;;;;;;;1.23;1.10;;;8.30;99.90;;;;;;6252319;23;20157;-54
2021/12/04 09:21:29;;;;;;;1.35;1.17;;;8.40;99.90;;;;;;6252523;23;20152;-54
2021/12/04 09:24:10;;;;;;;2.00;1.13;;;8.30;99.90;;;;;;6252815;22;20172;-53
2021/12/04 09:26:54;;;;;;;1.50;1.10;;;8.40;99.90;;;;;;6251693;23;20218;-54
2021/12/04 10:20:35;;;;;;;1.25;0.80;;;9.80;99.90;;;;;;6252818;23;20141;-55
2021/12/04 10:23:36;;;;;;;1.67;1.30;;;9.60;99.90;;;;;;6215292;23;20180;-55
2021/12/04 10:34:31;;;;;;;1.67;0.93;;;10.20;99.90;;;;;;6251428;22;20318;-55
2021/12/04 10:37:19;;;;;;;2.55;1.20;;;10.50;99.90;;;;;;6215063;23;20176;-55
2021/12/04 10:39:45;;;;;;;2.22;0.80;;;10.30;99.90;;;;;;6250890;23;20137;-55
2021/12/04 10:42:16;;;;;;;1.73;1.17;;;10.40;99.90;;;;;;6250732;22;20703;-55
2021/12/04 10:44:51;;;;;;;1.35;0.90;;;10.50;99.90;;;;;;6252942;23;20172;-54
2021/12/04 10:47:25;;;;;;;0.80;0.80;;;10.30;99.90;;;;;;6251083;23;20133;-55
2021/12/04 11:22:34;;;;;;;1.40;0.80;;;10.70;99.90;;;;;;6283421;22;20133;-50
2021/12/04 11:36:58;;;;;;;1.55;1.30;;;10.90;99.90;;;;;;6284226;22;20611;-51
2021/12/04 11:44:07;;;;;;;1.17;1.08;;;11.20;99.90;;;;;;6283954;22;20633;-50
2021/12/04 11:46:45;;;;;;;0.90;0.80;;;11.20;99.90;;;;;;6273750;22;20171;-50
2021/12/04 11:49:12;;;;;;;0.90;0.80;;;11.00;99.90;;;;;;6283916;22;20240;-51
2021/12/04 11:52:01;;;;;;;1.10;0.70;;;11.10;99.90;;;;;;6272291;22;20524;-52
2021/12/04 11:54:42;;;;;;;0.88;0.88;;;11.20;99.90;;;;;;6283588;22;20164;-52
2021/12/04 11:57:11;;;;;;;2.35;1.30;;;11.20;99.90;;;;;;6273705;22;20144;-51
2021/12/04 11:59:39;;;;;;;0.98;0.80;;;11.20;99.90;;;;;;6283798;22;20183;-51
2021/12/04 12:02:08;;;;;;;1.00;0.80;;;11.40;99.90;;;;;;6284395;22;20158;-51
2021/12/04 12:04:47;;;;;;;1.02;0.75;;;11.10;99.90;;;;;;6283519;22;20467;-51
2021/12/04 12:07:19;;;;;;;1.52;0.70;;;11.30;99.90;;;;;;6283637;22;20161;-51
2021/12/04 12:09:47;;;;;;;1.55;0.90;;;11.30;99.90;;;;;;6283521;22;20170;-51
2021/12/04 12:12:16;;;;;;;1.23;0.82;;;11.40;99.90;;;;;;6273862;22;20515;-51
2021/12/04 12:14:52;;;;;;;1.60;1.10;;;11.50;99.90;;;;;;6283597;22;20155;-52
2021/12/04 12:17:38;;;;;;;2.08;1.25;;;11.50;99.90;;;;;;6284188;22;20149;-50
2021/12/04 12:20:11;;;;;;;1.05;0.95;;;11.30;99.90;;;;;;6284130;22;20571;-51
2021/12/04 12:22:57;;;;;;;1.10;1.00;;;11.60;99.90;;;;;;6283884;22;20205;-50
2021/12/04 12:36:23;;;;;;;1.60;0.70;;;11.10;99.90;;;;;;6283800;22;20176;-50
2021/12/04 12:39:06;;;;;;;1.08;0.80;;;11.50;99.90;;;;;;6283607;22;20489;-51
2021/12/04 12:41:45;;;;;;;2.30;0.90;;;11.40;99.90;;;;;;6283321;22;20608;-51
2021/12/04 12:44:26;;;;;;;1.50;1.30;;;11.40;99.90;;;;;;6273339;22;20660;-51
2021/12/04 12:46:58;;;;;;;0.90;0.70;;;11.30;99.90;;;;;;6283513;22;20161;-50
2021/12/04 12:49:37;;;;;;;1.15;0.90;;;11.10;99.90;;;;;;6283266;22;20626;-50
2021/12/04 12:52:08;;;;;;;1.00;0.90;;;11.10;99.90;;;;;;6273101;22;20169;-50
2021/12/04 12:54:38;;;;;;;1.77;1.15;;;11.50;99.90;;;;;;6283950;22;20142;-50
2021/12/04 12:57:20;;;;;;;0.77;0.77;;;11.10;99.90;;;;;;6283391;22;20166;-50
2021/12/04 13:14:07;;;;;;;1.20;1.10;;;11.10;99.90;;;;;;6283137;22;20176;-51
2021/12/04 13:16:33;;;;;;;0.80;0.70;;;11.10;99.90;;;;;;6283141;22;20140;-50
2021/12/04 13:19:04;;;;;;;1.27;0.87;;;11.20;99.90;;;;;;6282726;22;20145;-50
2021/12/04 13:21:33;;;;;;;0.80;0.70;;;11.40;99.90;;;;;;6282577;22;20168;-51
2021/12/04 13:24:00;;;;;;;0.90;0.80;;;10.50;99.90;;;;;;6283119;22;20177;-51
2021/12/04 13:26:28;;;;;;;0.70;0.70;;;11.20;99.90;;;;;;6272515;22;20555;-50
2021/12/04 13:28:55;;;;;;;0.80;0.73;;;11.20;99.90;;;;;;6282931;22;20184;-50
2021/12/04 13:31:21;;;;;;;0.90;0.70;;;11.30;99.90;;;;;;6273893;22;20208;-51
2021/12/04 13:33:49;;;;;;;0.80;0.70;;;11.00;99.90;;;;;;6283640;22;20203;-51
2021/12/04 13:36:21;;;;;;;1.63;0.80;;;11.10;99.90;;;;;;6283187;22;20714;-51
2021/12/04 13:38:51;;;;;;;1.10;1.00;;;11.10;99.90;;;;;;6272761;22;20161;-51
2021/12/04 13:41:16;;;;;;;1.45;0.80;;;11.30;99.90;;;;;;6271749;22;20671;-51
2021/12/04 13:43:51;;;;;;;1.83;0.87;;;10.90;99.90;;;;;;6273332;22;20211;-51
2021/12/04 13:46:16;;;;;;;0.80;0.70;;;11.20;99.90;;;;;;6283205;22;20154;-50
2021/12/04 13:48:42;;;;;;;1.00;0.90;;;11.20;99.90;;;;;;6282663;22;20206;-50
2021/12/04 13:51:09;;;;;;;1.00;0.90;;;11.10;99.90;;;;;;6282730;22;20164;-51
2021/12/04 13:53:38;;;;;;;1.20;1.10;;;11.00;99.90;;;;;;6282905;22;20519;-50
2021/12/04 13:56:16;;;;;;;1.05;0.95;;;11.00;99.90;;;;;;6272800;22;20239;-50
2021/12/04 13:58:52;;;;;;;1.58;0.82;;;11.20;99.90;;;;;;6283404;22;20159;-50
2021/12/04 14:01:19;;;;;;;1.10;0.90;;;11.00;99.90;;;;;;6283980;22;20132;-50
2021/12/04 14:03:47;;;;;;;0.82;0.82;;;10.40;99.90;;;;;;6283144;22;20634;-51
2021/12/04 14:06:15;;;;;;;1.25;1.00;;;11.00;99.90;;;;;;6272450;22;20153;-50
2021/12/04 14:08:42;;;;;;;2.20;1.00;;;10.80;99.90;;;;;;6283294;22;20212;-52
2021/12/04 14:11:07;;;;;;;1.05;0.93;;;10.70;99.90;;;;;;6282825;22;20152;-50
2021/12/04 14:13:36;;;;;;;0.97;0.83;;;10.50;99.90;;;;;;6282669;22;20641;-50
2021/12/04 14:16:02;;;;;;;0.90;0.80;;;10.60;99.90;;;;;;6283074;22;20436;-50
2021/12/04 14:18:29;;;;;;;1.33;1.20;;;10.60;99.90;;;;;;6283165;22;20612;-51
2021/12/04 14:21:00;;;;;;;4.63;1.65;;;10.60;99.90;;;;;;6282664;22;20360;-50
2021/12/04 14:23:27;;;;;;;1.42;1.30;;;10.60;99.90;;;;;;6283707;22;20656;-52
2021/12/04 14:25:54;;;;;;;2.15;1.58;;;10.60;99.90;;;;;;6271443;22;20603;-50
2021/12/04 14:28:29;;;;;;;1.35;0.95;;;10.70;99.90;;;;;;6272258;22;20630;-51
2021/12/04 14:30:55;;;;;;;1.33;1.20;;;10.50;99.90;;;;;;6282630;22;20274;-50
2021/12/04 14:33:24;;;;;;;1.20;1.10;;;10.50;99.90;;;;;;6270524;22;20329;-50
2021/12/04 14:35:51;;;;;;;1.20;1.10;;;10.40;99.90;;;;;;6282275;22;20756;-50
2021/12/04 14:38:20;;;;;;;1.90;1.00;;;10.70;99.90;;;;;;6272307;22;20184;-51
2021/12/04 14:40:53;;;;;;;2.30;1.48;;;10.60;99.90;;;;;;6282741;22;20283;-51
2021/12/04 14:43:22;;;;;;;2.35;1.52;;;10.50;99.90;;;;;;6282654;22;20184;-50
2021/12/04 14:45:51;;;;;;;0.90;0.80;;;10.00;99.90;;;;;;6282076;22;20148;-50
2021/12/04 14:48:30;;;;;;;1.75;1.35;;;10.70;99.90;;;;;;6270238;22;20157;-52
2021/12/04 14:51:06;;;;;;;5.53;3.45;;;10.50;99.90;;;;;;6282571;22;20517;-52
2021/12/04 14:53:34;;;;;;;0.90;0.90;;;10.50;99.90;;;;;;6283086;22;20795;-51
2021/12/04 14:56:04;;;;;;;1.10;1.00;;;10.30;99.90;;;;;;6281450;22;20335;-51
2021/12/04 14:58:30;;;;;;;1.33;0.90;;;10.40;99.90;;;;;;6282640;22;20468;-52
2021/12/04 15:01:08;;;;;;;1.83;0.93;;;10.20;99.90;;;;;;6282868;22;20194;-51
2021/12/04 15:03:42;;;;;;;2.00;1.05;;;10.40;99.90;;;;;;6271594;22;20203;-50
2021/12/04 15:06:12;;;;;;;1.30;1.17;;;10.30;99.90;;;;;;6282184;22;20148;-50
2021/12/04 15:08:41;;;;;;;1.25;1.15;;;10.40;99.90;;;;;;6282328;22;20190;-50
2021/12/04 15:11:21;;;;;;;1.30;1.20;;;10.20;99.90;;;;;;6282588;22;20148;-50
2021/12/04 15:13:53;;;;;;;0.80;0.80;;;10.60;99.90;;;;;;6272690;22;20176;-52
2021/12/04 15:16:31;;;;;;;1.05;0.95;;;10.30;99.90;;;;;;6282641;22;20579;-51
2021/12/04 15:19:38;;;;;;;1.23;0.90;;;10.20;99.90;;;;;;6281664;22;20136;-52
2021/12/04 15:22:07;;;;;;;1.05;0.90;;;10.20;99.90;;;;;;6266567;22;20215;-52
2021/12/04 15:24:38;;;;;;;2.53;1.30;;;10.10;99.90;;;;;;6282525;22;20457;-51
2021/12/04 15:27:16;;;;;;;2.47;1.65;;;10.20;99.90;;;;;;6282295;22;20140;-52
2021/12/04 15:29:46;;;;;;;1.20;1.10;;;10.40;99.90;;;;;;6272665;22;20298;-52
2021/12/04 15:32:19;;;;;;;1.90;1.42;;;10.20;99.90;;;;;;6271687;22;20591;-51
2021/12/04 15:34:56;;;;;;;2.22;1.92;;;10.00;99.90;;;;;;6272482;22;20224;-50
2021/12/04 15:37:28;;;;;;;1.25;1.10;;;10.30;99.90;;;;;;6269954;22;20263;-52
2021/12/04 15:39:54;;;;;;;1.25;1.13;;;10.10;99.90;;;;;;6284203;22;20227;-52
2021/12/04 15:42:29;;;;;;;1.40;1.00;;;10.30;99.90;;;;;;6274125;22;20476;-51
2021/12/04 15:45:13;;;;;;;0.90;0.80;;;10.10;99.90;;;;;;6284574;22;20132;-52
2021/12/04 15:47:48;;;;;;;1.30;1.10;;;10.20;99.90;;;;;;6283893;22;20139;-51
2021/12/04 15:55:31;;;;;;;1.17;1.00;;;10.30;99.90;;;;;;6284183;22;20157;-52
2021/12/04 15:58:09;;;;;;;0.93;0.93;;;10.30;99.90;;;;;;6283240;22;20125;-51
2021/12/04 16:00:38;;;;;;;1.20;1.00;;;10.20;99.90;;;;;;6272463;22;20229;-52
2021/12/04 16:03:06;;;;;;;1.27;1.15;;;10.60;99.90;;;;;;6272469;22;20222;-52
2021/12/04 16:05:37;;;;;;;2.53;1.30;;;10.50;99.90;;;;;;6284380;22;20156;-52
2021/12/04 16:08:12;;;;;;;1.60;1.50;;;10.30;99.90;;;;;;6273227;22;20152;-53
2021/12/04 16:10:39;;;;;;;1.10;1.00;;;10.50;99.90;;;;;;6273564;22;20545;-53
2021/12/04 16:13:08;;;;;;;2.42;1.73;;;10.70;99.90;;;;;;6283817;22;20179;-52
2021/12/04 16:15:34;;;;;;;1.17;1.00;;;10.70;99.90;;;;;;6284318;22;20587;-52
2021/12/04 16:17:59;;;;;;;1.70;1.00;;;10.60;99.90;;;;;;6271565;22;20157;-51
2021/12/04 16:20:29;;;;;;;5.07;4.67;;;10.40;99.90;;;;;;6273244;22;20164;-53
2021/12/04 16:22:58;;;;;;;1.60;1.20;;;10.30;99.90;;;;;;6283515;22;20737;-51
2021/12/04 16:25:31;;;;;;;1.27;0.82;;;10.10;99.90;;;;;;6270379;22;20222;-51
2021/12/04 16:30:27;;;;;;;1.83;1.27;;;10.40;99.90;;;;;;6284425;22;20180;-51